PRIVATE WETTERSTATION BILLIGHEIM-ALLFELD                       ZURCK
Wetterdaten: Samstag, 01.04.2017
Datum Zeit Temp. A. Temp. A. min Temp. A. max Feuchte A. Luftdruck Regen Wind Richtung Richtung Sonnenschein ET Solar Taupunkt Windchill Windben Empfang
01.04.2017 00:00 11,0 C 11,0 C 11,3 C 72 % 1012,8 hPa 0,0 l/m 0,0 km/h (0 Bft) N 0 0 min 0,025 mm 0 W/m 6,2 C 11,0 C 0,0 km/h (0 Bft) 100 %
01.04.2017 00:10 10,6 C 10,6 C 11,0 C 73 % 1012,9 hPa 0,0 l/m 0,0 km/h (0 Bft) N 0 0 min 0,000 mm 0 W/m 6,0 C 10,6 C 0,0 km/h (0 Bft) 100 %
01.04.2017 00:20 10,4 C 10,4 C 10,6 C 72 % 1012,9 hPa 0,0 l/m 0,0 km/h (0 Bft) N 0 0 min 0,000 mm 0 W/m 5,6 C 10,4 C 0,0 km/h (0 Bft) 100 %
01.04.2017 00:30 10,3 C 10,3 C 10,4 C 74 % 1012,8 hPa 0,0 l/m 0,0 km/h (0 Bft) W-NW 292 0 min 0,000 mm 0 W/m 5,9 C 10,3 C 1,6 km/h (1 Bft) 100 %
01.04.2017 00:40 9,9 C 9,9 C 10,3 C 76 % 1012,8 hPa 0,0 l/m 1,6 km/h (1 Bft) W-NW 292 0 min 0,000 mm 0 W/m 5,9 C 9,9 C 8,0 km/h (2 Bft) 100 %
01.04.2017 00:50 9,5 C 9,5 C 9,9 C 77 % 1012,8 hPa 0,0 l/m 0,0 km/h (0 Bft) N 0 0 min 0,000 mm 0 W/m 5,7 C 9,5 C 0,0 km/h (0 Bft) 100 %
01.04.2017 01:00 9,3 C 9,3 C 9,5 C 78 % 1012,8 hPa 0,0 l/m 0,0 km/h (0 Bft) N 0 0 min 0,025 mm 0 W/m 5,7 C 9,3 C 0,0 km/h (0 Bft) 100 %
01.04.2017 01:10 9,2 C 9,2 C 9,3 C 78 % 1012,7 hPa 0,0 l/m 0,0 km/h (0 Bft) N 0 0 min 0,000 mm 0 W/m 5,6 C 9,2 C 0,0 km/h (0 Bft) 100 %
01.04.2017 01:20 9,0 C 9,0 C 9,1 C 78 % 1012,7 hPa 0,0 l/m 0,0 km/h (0 Bft) N 0 0 min 0,000 mm 0 W/m 5,4 C 9,0 C 0,0 km/h (0 Bft) 100 %
01.04.2017 01:30 9,0 C 9,0 C 9,1 C 79 % 1012,6 hPa 0,0 l/m 0,0 km/h (0 Bft) N 0 0 min 0,000 mm 0 W/m 5,6 C 9,0 C 0,0 km/h (0 Bft) 100 %
01.04.2017 01:40 8,9 C 8,9 C 9,0 C 79 % 1012,6 hPa 0,0 l/m 0,0 km/h (0 Bft) N 0 0 min 0,000 mm 0 W/m 5,5 C 8,9 C 0,0 km/h (0 Bft) 100 %
01.04.2017 01:50 8,8 C 8,8 C 8,9 C 78 % 1012,6 hPa 0,0 l/m 0,0 km/h (0 Bft) N 0 0 min 0,000 mm 0 W/m 5,2 C 8,8 C 0,0 km/h (0 Bft) 100 %
01.04.2017 02:00 8,4 C 8,4 C 8,7 C 79 % 1012,6 hPa 0,0 l/m 0,0 km/h (0 Bft) N 0 0 min 0,025 mm 0 W/m 5,0 C 8,4 C 0,0 km/h (0 Bft) 100 %
01.04.2017 02:10 8,3 C 8,3 C 8,4 C 78 % 1012,5 hPa 0,0 l/m 0,0 km/h (0 Bft) N 0 0 min 0,000 mm 0 W/m 4,7 C 8,3 C 0,0 km/h (0 Bft) 99 %
01.04.2017 02:20 8,1 C 8,1 C 8,3 C 81 % 1012,4 hPa 0,0 l/m 0,0 km/h (0 Bft) N 0 0 min 0,000 mm 0 W/m 5,0 C 8,1 C 0,0 km/h (0 Bft) 100 %
01.04.2017 02:30 7,8 C 7,8 C 8,1 C 81 % 1012,3 hPa 0,0 l/m 0,0 km/h (0 Bft) N 0 0 min 0,000 mm 0 W/m 4,7 C 7,8 C 0,0 km/h (0 Bft) 100 %
01.04.2017 02:40 7,6 C 7,6 C 7,8 C 82 % 1012,3 hPa 0,0 l/m 0,0 km/h (0 Bft) N 0 0 min 0,000 mm 0 W/m 4,7 C 7,6 C 0,0 km/h (0 Bft) 100 %
01.04.2017 02:50 7,6 C 7,6 C 7,6 C 82 % 1012,2 hPa 0,0 l/m 0,0 km/h (0 Bft) N 0 0 min 0,000 mm 0 W/m 4,7 C 7,6 C 0,0 km/h (0 Bft) 100 %
01.04.2017 03:00 7,6 C 7,5 C 7,6 C 83 % 1012,1 hPa 0,0 l/m 0,0 km/h (0 Bft) N 0 0 min 0,000 mm 0 W/m 4,9 C 7,6 C 0,0 km/h (0 Bft) 100 %
01.04.2017 03:10 7,4 C 7,4 C 7,5 C 83 % 1012,2 hPa 0,0 l/m 0,0 km/h (0 Bft) N 0 0 min 0,000 mm 0 W/m 4,7 C 7,4 C 0,0 km/h (0 Bft) 100 %
01.04.2017 03:20 7,4 C 7,4 C 7,5 C 83 % 1012,0 hPa 0,0 l/m 0,0 km/h (0 Bft) N 0 0 min 0,000 mm 0 W/m 4,7 C 7,4 C 0,0 km/h (0 Bft) 100 %
01.04.2017 03:30 7,3 C 7,3 C 7,5 C 83 % 1012,1 hPa 0,0 l/m 0,0 km/h (0 Bft) W-NW 292 0 min 0,000 mm 0 W/m 4,6 C 7,3 C 3,2 km/h (1 Bft) 100 %
01.04.2017 03:40 6,9 C 6,9 C 7,3 C 85 % 1012,0 hPa 0,0 l/m 1,6 km/h (1 Bft) W-NW 292 0 min 0,000 mm 0 W/m 4,6 C 6,9 C 3,2 km/h (1 Bft) 100 %
01.04.2017 03:50 6,8 C 6,8 C 6,9 C 86 % 1011,9 hPa 0,0 l/m 0,0 km/h (0 Bft) N 0 0 min 0,000 mm 0 W/m 4,6 C 6,8 C 0,0 km/h (0 Bft) 100 %
01.04.2017 04:00 7,0 C 6,8 C 7,0 C 85 % 1011,8 hPa 0,0 l/m 0,0 km/h (0 Bft) N 0 0 min 0,000 mm 0 W/m 4,7 C 7,0 C 0,0 km/h (0 Bft) 100 %
01.04.2017 04:10 7,3 C 7,1 C 7,3 C 84 % 1011,7 hPa 0,0 l/m 0,0 km/h (0 Bft) N 0 0 min 0,000 mm 0 W/m 4,8 C 7,3 C 0,0 km/h (0 Bft) 100 %
01.04.2017 04:20 7,0 C 7,0 C 7,3 C 84 % 1011,6 hPa 0,0 l/m 0,0 km/h (0 Bft) N 0 0 min 0,000 mm 0 W/m 4,5 C 7,0 C 0,0 km/h (0 Bft) 100 %
01.04.2017 04:30 6,7 C 6,7 C 7,0 C 85 % 1011,5 hPa 0,0 l/m 0,0 km/h (0 Bft) N 0 0 min 0,000 mm 0 W/m 4,4 C 6,7 C 0,0 km/h (0 Bft) 100 %
01.04.2017 04:40 6,3 C 6,3 C 6,7 C 86 % 1011,4 hPa 0,0 l/m 0,0 km/h (0 Bft) N 0 0 min 0,000 mm 0 W/m 4,1 C 6,3 C 0,0 km/h (0 Bft) 100 %
01.04.2017 04:50 6,1 C 6,1 C 6,3 C 87 % 1011,4 hPa 0,0 l/m 0,0 km/h (0 Bft) N 0 0 min 0,000 mm 0 W/m 4,1 C 6,1 C 0,0 km/h (0 Bft) 100 %
01.04.2017 05:00 6,1 C 6,1 C 6,1 C 87 % 1011,4 hPa 0,0 l/m 0,0 km/h (0 Bft) N 0 0 min 0,000 mm 0 W/m 4,1 C 6,1 C 0,0 km/h (0 Bft) 100 %
01.04.2017 05:10 6,1 C 6,1 C 6,1 C 88 % 1011,4 hPa 0,0 l/m 0,0 km/h (0 Bft) N 0 0 min 0,000 mm 0 W/m 4,3 C 6,1 C 0,0 km/h (0 Bft) 100 %
01.04.2017 05:20 6,1 C 6,1 C 6,1 C 88 % 1011,3 hPa 0,0 l/m 0,0 km/h (0 Bft) N 0 0 min 0,000 mm 0 W/m 4,3 C 6,1 C 0,0 km/h (0 Bft) 100 %
01.04.2017 05:30 6,1 C 6,1 C 6,1 C 88 % 1011,2 hPa 0,0 l/m 0,0 km/h (0 Bft) N 0 0 min 0,000 mm 0 W/m 4,3 C 6,1 C 0,0 km/h (0 Bft) 100 %
01.04.2017 05:40 6,1 C 6,1 C 6,1 C 88 % 1011,1 hPa 0,0 l/m 0,0 km/h (0 Bft) N 0 0 min 0,000 mm 0 W/m 4,3 C 6,1 C 0,0 km/h (0 Bft) 100 %
01.04.2017 05:50 6,2 C 6,1 C 6,2 C 88 % 1011,0 hPa 0,0 l/m 0,0 km/h (0 Bft) N 0 0 min 0,000 mm 0 W/m 4,4 C 6,2 C 0,0 km/h (0 Bft) 98 %
01.04.2017 06:00 6,2 C 6,2 C 6,2 C 88 % 1011,0 hPa 0,0 l/m 0,0 km/h (0 Bft) N 0 0 min 0,000 mm 0 W/m 4,4 C 6,2 C 0,0 km/h (0 Bft) 100 %
01.04.2017 06:10 6,1 C 6,1 C 6,2 C 87 % 1010,8 hPa 0,0 l/m 0,0 km/h (0 Bft) N 0 0 min 0,000 mm 0 W/m 4,1 C 6,1 C 0,0 km/h (0 Bft) 100 %
01.04.2017 06:20 5,8 C 5,8 C 6,0 C 88 % 1010,8 hPa 0,0 l/m 0,0 km/h (0 Bft) N 0 0 min 0,000 mm 0 W/m 4,0 C 5,8 C 0,0 km/h (0 Bft) 100 %
01.04.2017 06:30 5,8 C 5,8 C 5,8 C 88 % 1010,9 hPa 0,0 l/m 0,0 km/h (0 Bft) W-NW 292 0 min 0,000 mm 0 W/m 4,0 C 5,8 C 1,6 km/h (1 Bft) 100 %
01.04.2017 06:40 5,7 C 5,7 C 5,8 C 89 % 1010,8 hPa 0,0 l/m 0,0 km/h (0 Bft) N 0 0 min 0,000 mm 0 W/m 4,0 C 5,7 C 0,0 km/h (0 Bft) 97 %
01.04.2017 06:50 5,7 C 5,6 C 5,7 C 89 % 1010,7 hPa 0,0 l/m 0,0 km/h (0 Bft) N 0 0 min 0,000 mm 0 W/m 4,0 C 5,7 C 0,0 km/h (0 Bft) 98 %
01.04.2017 07:00 5,7 C 5,6 C 5,7 C 89 % 1010,8 hPa 0,0 l/m 0,0 km/h (0 Bft) N 0 0 min 0,000 mm 5 W/m 4,0 C 5,7 C 0,0 km/h (0 Bft) 97 %
01.04.2017 07:10 5,8 C 5,7 C 5,8 C 89 % 1010,8 hPa 0,0 l/m 0,0 km/h (0 Bft) N 0 0 min 0,000 mm 9 W/m 4,1 C 5,8 C 0,0 km/h (0 Bft) 97 %
01.04.2017 07:20 5,6 C 5,6 C 5,8 C 89 % 1010,9 hPa 0,0 l/m 0,0 km/h (0 Bft) N 0 0 min 0,000 mm 23 W/m 3,9 C 5,6 C 0,0 km/h (0 Bft) 97 %
01.04.2017 07:30 5,6 C 5,6 C 5,6 C 89 % 1010,9 hPa 0,0 l/m 0,0 km/h (0 Bft) N 0 0 min 0,000 mm 37 W/m 3,9 C 5,6 C 0,0 km/h (0 Bft) 98 %
01.04.2017 07:40 5,6 C 5,6 C 5,6 C 90 % 1010,9 hPa 0,0 l/m 0,0 km/h (0 Bft) N 0 0 min 0,000 mm 49 W/m 4,1 C 5,6 C 0,0 km/h (0 Bft) 98 %
01.04.2017 07:50 5,7 C 5,6 C 5,7 C 90 % 1010,8 hPa 0,0 l/m 0,0 km/h (0 Bft) N 0 0 min 0,000 mm 65 W/m 4,2 C 5,7 C 0,0 km/h (0 Bft) 97 %
01.04.2017 08:00 5,8 C 5,7 C 5,8 C 89 % 1010,7 hPa 0,0 l/m 0,0 km/h (0 Bft) N 0 0 min 0,025 mm 79 W/m 4,1 C 5,8 C 0,0 km/h (0 Bft) 98 %
01.04.2017 08:10 6,1 C 5,8 C 6,1 C 90 % 1010,7 hPa 0,0 l/m 0,0 km/h (0 Bft) N 0 0 min 0,000 mm 84 W/m 4,6 C 6,1 C 0,0 km/h (0 Bft) 97 %
01.04.2017 08:20 6,4 C 6,1 C 6,4 C 90 % 1010,8 hPa 0,0 l/m 0,0 km/h (0 Bft) N 0 0 min 0,000 mm 105 W/m 4,9 C 6,4 C 0,0 km/h (0 Bft) 98 %
01.04.2017 08:30 6,8 C 6,4 C 6,8 C 90 % 1010,8 hPa 0,0 l/m 0,0 km/h (0 Bft) N 0 10 min 0,000 mm 162 W/m 5,3 C 6,8 C 0,0 km/h (0 Bft) 97 %
01.04.2017 08:40 7,3 C 6,8 C 7,3 C 89 % 1010,8 hPa 0,0 l/m 0,0 km/h (0 Bft) N 0 10 min 0,000 mm 158 W/m 5,6 C 7,3 C 0,0 km/h (0 Bft) 97 %
01.04.2017 08:50 7,8 C 7,3 C 7,8 C 89 % 1010,8 hPa 0,0 l/m 0,0 km/h (0 Bft) N 0 10 min 0,000 mm 192 W/m 6,1 C 7,8 C 0,0 km/h (0 Bft) 98 %
01.04.2017 09:00 8,7 C 7,9 C 8,7 C 87 % 1010,6 hPa 0,0 l/m 0,0 km/h (0 Bft) N 0 10 min 0,051 mm 290 W/m 6,7 C 8,7 C 0,0 km/h (0 Bft) 97 %
01.04.2017 09:10 9,7 C 8,8 C 9,7 C 86 % 1010,5 hPa 0,0 l/m 0,0 km/h (0 Bft) N 0 10 min 0,000 mm 294 W/m 7,5 C 9,7 C 0,0 km/h (0 Bft) 98 %
01.04.2017 09:20 10,2 C 9,7 C 10,2 C 82 % 1010,4 hPa 0,0 l/m 0,0 km/h (0 Bft) N 0 10 min 0,000 mm 352 W/m 7,3 C 10,2 C 0,0 km/h (0 Bft) 97 %
01.04.2017 09:30 10,8 C 10,2 C 10,8 C 83 % 1010,4 hPa 0,0 l/m 0,0 km/h (0 Bft) N 0 10 min 0,000 mm 294 W/m 8,0 C 10,8 C 0,0 km/h (0 Bft) 98 %
01.04.2017 09:40 11,1 C 10,8 C 11,2 C 79 % 1010,5 hPa 0,0 l/m 0,0 km/h (0 Bft) W-NW 292 10 min 0,000 mm 225 W/m 7,6 C 11,1 C 1,6 km/h (1 Bft) 97 %
01.04.2017 09:50 10,9 C 10,9 C 11,1 C 78 % 1010,7 hPa 0,0 l/m 1,6 km/h (1 Bft) SW 225 10 min 0,000 mm 197 W/m 7,2 C 10,9 C 9,7 km/h (2 Bft) 97 %
01.04.2017 10:00 10,8 C 10,8 C 10,9 C 79 % 1010,5 hPa 0,0 l/m 0,0 km/h (0 Bft) SW 225 10 min 0,102 mm 230 W/m 7,3 C 10,8 C 1,6 km/h (1 Bft) 98 %
01.04.2017 10:10 11,2 C 10,8 C 11,2 C 81 % 1010,5 hPa 0,0 l/m 0,0 km/h (0 Bft) SW 215 10 min 0,000 mm 253 W/m 8,1 C 11,2 C 0,0 km/h (0 Bft) 100 %
01.04.2017 10:20 11,5 C 11,2 C 11,5 C 80 % 1010,6 hPa 0,0 l/m 0,3 km/h (0 Bft) SW 215 10 min 0,000 mm 237 W/m 8,2 C 11,5 C 4,8 km/h (1 Bft) 100 %
01.04.2017 10:30 11,7 C 11,5 C 11,7 C 80 % 1010,7 hPa 0,0 l/m 0,0 km/h (0 Bft) SW 215 10 min 0,000 mm 239 W/m 8,4 C 11,7 C 1,6 km/h (1 Bft) 100 %
01.04.2017 10:40 12,2 C 11,7 C 12,2 C 77 % 1010,7 hPa 0,0 l/m 0,0 km/h (0 Bft) SW 215 10 min 0,000 mm 429 W/m 8,3 C 12,2 C 0,0 km/h (0 Bft) 100 %
01.04.2017 10:50 13,1 C 12,2 C 13,1 C 77 % 1010,7 hPa 0,0 l/m 0,0 km/h (0 Bft) SW 215 10 min 0,000 mm 394 W/m 9,2 C 13,1 C 0,0 km/h (0 Bft) 100 %
01.04.2017 11:00 14,0 C 13,1 C 14,0 C 72 % 1010,5 hPa 0,0 l/m 0,3 km/h (0 Bft) SW 215 10 min 0,128 mm 603 W/m 9,0 C 14,0 C 3,2 km/h (1 Bft) 99 %
01.04.2017 11:10 15,1 C 14,0 C 15,1 C 68 % 1010,5 hPa 0,0 l/m 0,0 km/h (0 Bft) SW 215 10 min 0,000 mm 680 W/m 9,2 C 15,1 C 0,0 km/h (0 Bft) 99 %
01.04.2017 11:20 16,3 C 15,1 C 16,3 C 67 % 1010,5 hPa 0,0 l/m 0,5 km/h (0 Bft) SW 215 10 min 0,000 mm 480 W/m 10,2 C 16,3 C 4,8 km/h (1 Bft) 100 %
01.04.2017 11:30 16,6 C 16,3 C 16,6 C 66 % 1010,6 hPa 0,0 l/m 0,0 km/h (0 Bft) SW 215 10 min 0,000 mm 561 W/m 10,2 C 16,6 C 0,0 km/h (0 Bft) 100 %
01.04.2017 11:40 16,9 C 16,6 C 17,0 C 62 % 1010,5 hPa 0,0 l/m 0,0 km/h (0 Bft) S-SW 210 10 min 0,000 mm 684 W/m 9,6 C 16,9 C 1,6 km/h (1 Bft) 100 %
01.04.2017 11:50 17,4 C 16,9 C 17,4 C 61 % 1010,4 hPa 0,0 l/m 0,7 km/h (0 Bft) S-SW 204 10 min 0,000 mm 691 W/m 9,8 C 17,4 C 9,7 km/h (2 Bft) 99 %
01.04.2017 12:00 17,8 C 17,4 C 17,9 C 58 % 1010,5 hPa 0,0 l/m 2,3 km/h (1 Bft) S 182 10 min 0,330 mm 735 W/m 9,4 C 17,8 C 9,7 km/h (2 Bft) 100 %
01.04.2017 12:10 17,9 C 17,8 C 18,0 C 60 % 1010,4 hPa 0,0 l/m 3,8 km/h (1 Bft) S-SW 196 10 min 0,000 mm 434 W/m 10,0 C 17,9 C 11,3 km/h (2 Bft) 100 %
01.04.2017 12:20 17,6 C 17,6 C 17,9 C 59 % 1010,4 hPa 0,0 l/m 3,1 km/h (1 Bft) S 172 10 min 0,000 mm 485 W/m 9,5 C 17,6 C 11,3 km/h (2 Bft) 100 %
01.04.2017 12:30 17,6 C 17,4 C 17,6 C 58 % 1010,3 hPa 0,0 l/m 2,2 km/h (1 Bft) SW 235 10 min 0,000 mm 759 W/m 9,2 C 17,6 C 8,0 km/h (2 Bft) 100 %
01.04.2017 12:40 18,5 C 17,6 C 18,5 C 59 % 1010,2 hPa 0,0 l/m 5,7 km/h (1 Bft) SW 222 10 min 0,000 mm 701 W/m 10,3 C 18,5 C 12,9 km/h (3 Bft) 100 %
01.04.2017 12:50 19,1 C 18,5 C 19,1 C 50 % 1010,0 hPa 0,0 l/m 2,5 km/h (1 Bft) W-NW 292 10 min 0,000 mm 726 W/m 8,4 C 19,1 C 9,7 km/h (2 Bft) 100 %
01.04.2017 13:00 19,5 C 19,1 C 19,5 C 50 % 1010,0 hPa 0,0 l/m 1,2 km/h (1 Bft) W-NW 294 10 min 0,407 mm 722 W/m 8,8 C 19,5 C 6,4 km/h (2 Bft) 100 %
01.04.2017 13:10 19,8 C 19,5 C 19,8 C 53 % 1009,8 hPa 0,0 l/m 2,7 km/h (1 Bft) SW 235 10 min 0,000 mm 728 W/m 9,9 C 19,8 C 9,7 km/h (2 Bft) 100 %
01.04.2017 13:20 20,4 C 19,8 C 20,4 C 49 % 1009,8 hPa 0,0 l/m 4,3 km/h (1 Bft) W-NW 301 10 min 0,000 mm 654 W/m 9,3 C 20,4 C 14,5 km/h (3 Bft) 100 %
01.04.2017 13:30 20,4 C 20,4 C 20,6 C 48 % 1009,6 hPa 0,0 l/m 6,0 km/h (2 Bft) W-SW 258 10 min 0,000 mm 497 W/m 9,0 C 20,4 C 14,5 km/h (3 Bft) 100 %
01.04.2017 13:40 20,6 C 20,4 C 20,6 C 48 % 1009,5 hPa 0,0 l/m 4,7 km/h (1 Bft) NW 311 10 min 0,000 mm 726 W/m 9,2 C 20,6 C 12,9 km/h (3 Bft) 100 %
01.04.2017 13:50 20,7 C 20,6 C 20,7 C 49 % 1009,5 hPa 0,0 l/m 4,4 km/h (1 Bft) W-NW 290 10 min 0,000 mm 517 W/m 9,6 C 20,7 C 12,9 km/h (3 Bft) 99 %
01.04.2017 14:00 20,8 C 20,7 C 20,8 C 46 % 1009,6 hPa 0,0 l/m 3,6 km/h (1 Bft) NW 313 10 min 0,406 mm 659 W/m 8,8 C 20,8 C 11,3 km/h (2 Bft) 100 %
01.04.2017 14:10 21,1 C 20,8 C 21,1 C 48 % 1009,4 hPa 0,0 l/m 2,6 km/h (1 Bft) W-NW 298 10 min 0,000 mm 492 W/m 9,7 C 21,1 C 9,7 km/h (2 Bft) 100 %
01.04.2017 14:20 21,1 C 21,1 C 21,1 C 47 % 1009,3 hPa 0,0 l/m 5,0 km/h (1 Bft) W-SW 240 10 min 0,000 mm 642 W/m 9,3 C 21,1 C 17,7 km/h (3 Bft) 100 %
01.04.2017 14:30 21,1 C 21,1 C 21,1 C 50 % 1009,3 hPa 0,0 l/m 6,0 km/h (2 Bft) W 267 10 min 0,000 mm 712 W/m 10,3 C 21,1 C 16,1 km/h (3 Bft) 100 %
01.04.2017 14:40 21,2 C 21,1 C 21,2 C 48 % 1009,3 hPa 0,0 l/m 6,9 km/h (2 Bft) SW 229 10 min 0,000 mm 656 W/m 9,7 C 21,0 C 14,5 km/h (3 Bft) 100 %
01.04.2017 14:50 21,4 C 21,2 C 21,4 C 47 % 1009,3 hPa 0,0 l/m 6,0 km/h (2 Bft) SW 217 10 min 0,000 mm 670 W/m 9,6 C 21,4 C 17,7 km/h (3 Bft) 100 %
01.04.2017 15:00 21,2 C 21,2 C 21,4 C 47 % 1009,2 hPa 0,0 l/m 4,6 km/h (1 Bft) W 259 10 min 0,406 mm 490 W/m 9,4 C 21,2 C 17,7 km/h (3 Bft) 100 %
01.04.2017 15:10 21,0 C 21,0 C 21,2 C 48 % 1009,1 hPa 0,0 l/m 2,9 km/h (1 Bft) SW 233 10 min 0,000 mm 443 W/m 9,6 C 21,0 C 11,3 km/h (2 Bft) 100 %
01.04.2017 15:20 20,8 C 20,8 C 21,0 C 49 % 1009,1 hPa 0,0 l/m 1,6 km/h (1 Bft) W-NW 282 10 min 0,000 mm 367 W/m 9,7 C 20,8 C 14,5 km/h (3 Bft) 100 %
01.04.2017 15:30 20,8 C 20,7 C 20,8 C 49 % 1008,9 hPa 0,0 l/m 4,9 km/h (1 Bft) SW 217 10 min 0,000 mm 306 W/m 9,7 C 20,8 C 19,3 km/h (3 Bft) 100 %
01.04.2017 15:40 20,6 C 20,6 C 20,8 C 51 % 1008,8 hPa 0,0 l/m 3,5 km/h (1 Bft) W 279 10 min 0,000 mm 241 W/m 10,1 C 20,6 C 16,1 km/h (3 Bft) 100 %
01.04.2017 15:50 20,6 C 20,6 C 20,6 C 50 % 1008,8 hPa 0,0 l/m 5,8 km/h (2 Bft) W-SW 237 10 min 0,000 mm 220 W/m 9,8 C 20,6 C 19,3 km/h (3 Bft) 99 %
01.04.2017 16:00 20,4 C 20,4 C 20,6 C 50 % 1008,9 hPa 0,0 l/m 5,1 km/h (1 Bft) W-SW 256 10 min 0,000 mm 223 W/m 9,6 C 20,4 C 17,7 km/h (3 Bft) 100 %
01.04.2017 16:10 19,8 C 19,8 C 20,4 C 50 % 1008,8 hPa 0,0 l/m 8,4 km/h (2 Bft) W-SW 252 10 min 0,229 mm 199 W/m 9,1 C 19,0 C 20,9 km/h (4 Bft) 100 %
01.04.2017 16:20 19,3 C 19,3 C 19,8 C 52 % 1009,0 hPa 0,0 l/m 10,7 km/h (2 Bft) W-SW 253 10 min 0,000 mm 202 W/m 9,2 C 17,6 C 22,5 km/h (4 Bft) 100 %
01.04.2017 16:30 19,2 C 19,2 C 19,3 C 53 % 1009,0 hPa 0,0 l/m 8,2 km/h (2 Bft) W 260 10 min 0,000 mm 236 W/m 9,4 C 18,4 C 20,9 km/h (4 Bft) 100 %
01.04.2017 16:40 19,4 C 19,2 C 19,4 C 53 % 1008,8 hPa 0,0 l/m 9,5 km/h (2 Bft) W-SW 257 10 min 0,000 mm 234 W/m 9,6 C 18,2 C 22,5 km/h (4 Bft) 100 %
01.04.2017 16:50 19,8 C 19,4 C 19,8 C 51 % 1008,9 hPa 0,0 l/m 10,4 km/h (2 Bft) W-SW 244 10 min 0,000 mm 227 W/m 9,4 C 18,3 C 19,3 km/h (3 Bft) 100 %
01.04.2017 17:00 20,1 C 19,8 C 20,1 C 52 % 1008,6 hPa 0,0 l/m 8,0 km/h (2 Bft) W 276 10 min 0,000 mm 209 W/m 9,9 C 19,5 C 19,3 km/h (3 Bft) 99 %
01.04.2017 17:10 20,2 C 20,1 C 20,2 C 50 % 1008,5 hPa 0,0 l/m 9,0 km/h (2 Bft) W-SW 244 0 min 0,203 mm 149 W/m 9,4 C 19,2 C 19,3 km/h (3 Bft) 98 %
01.04.2017 17:20 20,2 C 20,2 C 20,2 C 50 % 1008,6 hPa 0,0 l/m 6,3 km/h (2 Bft) W 273 0 min 0,000 mm 113 W/m 9,4 C 20,2 C 19,3 km/h (3 Bft) 100 %
01.04.2017 17:30 20,2 C 20,1 C 20,2 C 50 % 1008,5 hPa 0,0 l/m 3,1 km/h (1 Bft) NW 304 0 min 0,000 mm 93 W/m 9,4 C 20,2 C 9,7 km/h (2 Bft) 98 %
01.04.2017 17:40 20,2 C 20,1 C 20,2 C 50 % 1008,6 hPa 0,0 l/m 5,5 km/h (1 Bft) W-NW 299 0 min 0,000 mm 79 W/m 9,4 C 20,2 C 16,1 km/h (3 Bft) 100 %
01.04.2017 17:50 19,9 C 19,9 C 20,2 C 50 % 1008,6 hPa 0,0 l/m 5,2 km/h (1 Bft) W-NW 298 0 min 0,000 mm 69 W/m 9,2 C 19,9 C 19,3 km/h (3 Bft) 100 %
01.04.2017 18:00 19,8 C 19,8 C 19,9 C 50 % 1008,7 hPa 0,0 l/m 3,9 km/h (1 Bft) W 275 0 min 0,102 mm 65 W/m 9,1 C 19,8 C 11,3 km/h (2 Bft) 100 %
01.04.2017 18:10 19,5 C 19,5 C 19,8 C 50 % 1008,7 hPa 0,0 l/m 6,6 km/h (2 Bft) W 263 0 min 0,000 mm 67 W/m 8,8 C 19,4 C 16,1 km/h (3 Bft) 100 %
01.04.2017 18:20 19,3 C 19,3 C 19,5 C 50 % 1008,8 hPa 0,0 l/m 7,2 km/h (2 Bft) W 273 0 min 0,000 mm 69 W/m 8,6 C 19,0 C 14,5 km/h (3 Bft) 99 %
01.04.2017 18:30 19,1 C 19,1 C 19,3 C 51 % 1008,9 hPa 0,0 l/m 8,4 km/h (2 Bft) W-SW 253 0 min 0,000 mm 62 W/m 8,7 C 18,2 C 16,1 km/h (3 Bft) 99 %
01.04.2017 18:40 18,8 C 18,8 C 19,1 C 51 % 1008,9 hPa 0,0 l/m 6,9 km/h (2 Bft) W-NW 292 0 min 0,000 mm 53 W/m 8,4 C 18,6 C 17,7 km/h (3 Bft) 100 %
01.04.2017 18:50 18,7 C 18,7 C 18,8 C 51 % 1009,0 hPa 0,0 l/m 6,5 km/h (2 Bft) W 263 0 min 0,000 mm 44 W/m 8,4 C 18,7 C 16,1 km/h (3 Bft) 99 %
01.04.2017 19:00 18,4 C 18,4 C 18,7 C 53 % 1009,2 hPa 0,0 l/m 5,1 km/h (1 Bft) W 273 0 min 0,076 mm 39 W/m 8,6 C 18,4 C 11,3 km/h (2 Bft) 100 %
01.04.2017 19:10 18,1 C 18,1 C 18,4 C 53 % 1009,3 hPa 0,0 l/m 8,5 km/h (2 Bft) W 260 0 min 0,000 mm 33 W/m 8,4 C 17,1 C 20,9 km/h (4 Bft) 100 %
01.04.2017 19:20 17,8 C 17,8 C 18,1 C 53 % 1009,3 hPa 0,0 l/m 7,3 km/h (2 Bft) W-SW 244 0 min 0,000 mm 23 W/m 8,1 C 17,4 C 16,1 km/h (3 Bft) 100 %
01.04.2017 19:30 17,6 C 17,6 C 17,8 C 54 % 1009,5 hPa 0,0 l/m 5,5 km/h (1 Bft) W-NW 300 0 min 0,000 mm 14 W/m 8,2 C 17,6 C 16,1 km/h (3 Bft) 100 %
01.04.2017 19:40 17,2 C 17,2 C 17,6 C 55 % 1009,4 hPa 0,0 l/m 8,5 km/h (2 Bft) W 260 0 min 0,000 mm 9 W/m 8,1 C 16,2 C 17,7 km/h (3 Bft) 100 %
01.04.2017 19:50 16,9 C 16,9 C 17,2 C 56 % 1009,7 hPa 0,0 l/m 10,1 km/h (2 Bft) W-NW 296 0 min 0,000 mm 5 W/m 8,1 C 15,2 C 20,9 km/h (4 Bft) 100 %
01.04.2017 20:00 16,6 C 16,6 C 16,9 C 56 % 1009,7 hPa 0,0 l/m 8,9 km/h (2 Bft) W 274 0 min 0,076 mm 0 W/m 7,8 C 15,4 C 19,3 km/h (3 Bft) 100 %
01.04.2017 20:10 16,3 C 16,3 C 16,6 C 57 % 1009,9 hPa 0,0 l/m 6,5 km/h (2 Bft) W-NW 288 0 min 0,000 mm 0 W/m 7,8 C 16,3 C 17,7 km/h (3 Bft) 100 %
01.04.2017 20:20 16,0 C 16,0 C 16,3 C 57 % 1010,0 hPa 0,0 l/m 3,2 km/h (1 Bft) W-NW 291 0 min 0,000 mm 0 W/m 7,5 C 16,0 C 19,3 km/h (3 Bft) 100 %
01.04.2017 20:30 15,8 C 15,8 C 16,1 C 58 % 1010,3 hPa 0,0 l/m 3,9 km/h (1 Bft) W-NW 296 0 min 0,000 mm 0 W/m 7,6 C 15,8 C 14,5 km/h (3 Bft) 100 %
01.04.2017 20:40 15,5 C 15,5 C 15,8 C 58 % 1010,2 hPa 0,0 l/m 4,9 km/h (1 Bft) W-NW 299 0 min 0,000 mm 0 W/m 7,3 C 15,5 C 9,7 km/h (2 Bft) 100 %
01.04.2017 20:50 15,2 C 15,2 C 15,5 C 59 % 1010,4 hPa 0,0 l/m 8,5 km/h (2 Bft) W-NW 302 0 min 0,000 mm 0 W/m 7,2 C 14,1 C 19,3 km/h (3 Bft) 100 %
01.04.2017 21:00 15,1 C 15,1 C 15,2 C 60 % 1010,6 hPa 0,0 l/m 9,7 km/h (2 Bft) W-NW 295 0 min 0,051 mm 0 W/m 7,4 C 13,4 C 22,5 km/h (4 Bft) 100 %
01.04.2017 21:10 14,9 C 14,9 C 15,1 C 62 % 1010,7 hPa 0,0 l/m 12,9 km/h (3 Bft) W-NW 292 0 min 0,000 mm 0 W/m 7,7 C 11,8 C 29,0 km/h (5 Bft) 98 %
01.04.2017 21:20 14,7 C 14,7 C 14,9 C 63 % 1010,7 hPa 0,0 l/m 11,3 km/h (2 Bft) W-NW 292 0 min 0,000 mm 0 W/m 7,7 C 12,2 C 24,1 km/h (4 Bft) 98 %
01.04.2017 21:30 14,3 C 14,3 C 14,6 C 63 % 1010,8 hPa 0,0 l/m 9,7 km/h (2 Bft) W-NW 292 0 min 0,000 mm 0 W/m 7,4 C 12,5 C 20,9 km/h (4 Bft) 98 %
01.04.2017 21:40 14,1 C 14,1 C 14,3 C 64 % 1010,9 hPa 0,0 l/m 8,0 km/h (2 Bft) W-NW 292 0 min 0,000 mm 0 W/m 7,4 C 13,2 C 22,5 km/h (4 Bft) 97 %
01.04.2017 21:50 13,9 C 13,9 C 14,1 C 64 % 1011,0 hPa 0,0 l/m 9,7 km/h (2 Bft) W-NW 292 0 min 0,000 mm 0 W/m 7,2 C 12,0 C 24,1 km/h (4 Bft) 98 %
01.04.2017 22:00 13,7 C 13,7 C 13,9 C 65 % 1011,1 hPa 0,0 l/m 8,0 km/h (2 Bft) W-NW 292 0 min 0,051 mm 0 W/m 7,2 C 12,7 C 20,9 km/h (4 Bft) 98 %
01.04.2017 22:10 13,5 C 13,5 C 13,7 C 66 % 1011,3 hPa 0,0 l/m 8,0 km/h (2 Bft) W-NW 292 0 min 0,000 mm 0 W/m 7,3 C 12,5 C 17,7 km/h (3 Bft) 98 %
01.04.2017 22:20 13,3 C 13,3 C 13,5 C 67 % 1011,5 hPa 0,0 l/m 8,0 km/h (2 Bft) W-NW 292 0 min 0,000 mm 0 W/m 7,3 C 12,3 C 19,3 km/h (3 Bft) 97 %
01.04.2017 22:30 13,1 C 13,1 C 13,3 C 67 % 1011,7 hPa 0,0 l/m 6,4 km/h (2 Bft) W-NW 292 0 min 0,000 mm 0 W/m 7,1 C 13,1 C 17,7 km/h (3 Bft) 97 %
01.04.2017 22:40 12,9 C 12,9 C 13,1 C 67 % 1011,7 hPa 0,0 l/m 6,4 km/h (2 Bft) NW 315 0 min 0,000 mm 0 W/m 6,9 C 12,9 C 16,1 km/h (3 Bft) 98 %
01.04.2017 22:50 12,7 C 12,7 C 12,9 C 68 % 1012,0 hPa 0,0 l/m 4,8 km/h (1 Bft) NW 315 0 min 0,000 mm 0 W/m 6,9 C 12,7 C 14,5 km/h (3 Bft) 97 %
01.04.2017 23:00 12,6 C 12,6 C 12,7 C 69 % 1012,0 hPa 0,0 l/m 3,2 km/h (1 Bft) W-NW 292 0 min 0,051 mm 0 W/m 7,1 C 12,6 C 11,3 km/h (2 Bft) 97 %
01.04.2017 23:10 12,4 C 12,4 C 12,6 C 70 % 1012,3 hPa 0,0 l/m 1,6 km/h (1 Bft) W-NW 292 0 min 0,000 mm 0 W/m 7,1 C 12,4 C 6,4 km/h (2 Bft) 97 %
01.04.2017 23:20 12,2 C 12,2 C 12,4 C 71 % 1012,4 hPa 0,0 l/m 1,6 km/h (1 Bft) W-NW 292 0 min 0,000 mm 0 W/m 7,1 C 12,2 C 8,0 km/h (2 Bft) 97 %
01.04.2017 23:30 12,2 C 12,2 C 12,2 C 71 % 1012,4 hPa 0,0 l/m 3,2 km/h (1 Bft) W-NW 292 0 min 0,000 mm 0 W/m 7,1 C 12,2 C 9,7 km/h (2 Bft) 98 %
01.04.2017 23:40 12,1 C 12,1 C 12,2 C 71 % 1012,7 hPa 0,0 l/m 0,0 km/h (0 Bft) W-NW 292 0 min 0,000 mm 0 W/m 7,0 C 12,1 C 4,8 km/h (1 Bft) 98 %
01.04.2017 23:50 11,9 C 11,9 C 12,1 C 72 % 1012,8 hPa 0,0 l/m 1,6 km/h (1 Bft) W 270 0 min 0,000 mm 0 W/m 7,0 C 11,9 C 6,4 km/h (2 Bft) 98 %
_ Min-Zeit 06:50 06:50 07:30 14:00 17:10 - 00:00 - - - - - 07:20 07:20 00:00 07:00
Minimum _ 5,6 C 5,6 C 5,6 C 46 % 1008,5 hPa - 0,0 km/h (0 Bft) - - - - - 3,9 C 5,6 C 0,0 km/h (0 Bft) 97 %
_ Max-Zeit 14:50 14:50 14:50 07:40 00:10 00:00 21:10 - - 08:30 13:00 12:30 12:40 14:50 21:10 00:10
Maximum _ 21,4 C 21,2 C 21,4 C 90 % 1012,9 hPa 0,0 l/m 12,9 km/h
W-NW (3 Bft)
- - 10 min 0,407 mm 759 W/m 10,3 C 21,4 C 29,0 km/h
W-NW (5 Bft)
100 %
Durchschnitt _ 13,2 C 13,1 C 13,3 C 69 % 1010,7 hPa #0,0 l/m 3,0 km/h (1 Bft) W-NW - #8:40 h #2,769 mm 310 W/m 7,1 C 13,0 C 8,3 km/h (2 Bft) 99 %
PRIVATE WETTERSTATION BILLIGHEIM-ALLFELD - www.neckar-odenwald-wetter.de - Holger Sonntag